Fairdale, ND (58229)

4:23 PM CDT on July 24, 2016 (GMT -0500)
Rural | | Change Station

Elev 1225 ft 48.47 °N, 97.88 °W | Updated 8 minutes ago

Partly Cloudy
Partly Cloudy
79.5 °F
Feels Like 81 °F
N
12.5
Wind Variable Wind from West

Today
High -- | Low -- °F
--% Chance of Precip.
Yesterday
High -- | Low -- °F
Precip. -- in
Pressure 29.93 in
Visibility 10.0 miles
Clouds Few 4300 ft
Few 12000 ft
Heat Index 81 °F
Dew Point 61 °F
Humidity 54%
Rainfall 0.00 in
Snow Depth Not available.
5:58 AM 9:19 PM
Waning Gibbous, 73% visible
METAR KD55 242115Z AUTO 29013G20KT 10SM FEW043 FEW120 25/17 A2993 RMK AO2
Pressure 29.93 in
Visibility 10.0 miles
Clouds Few 4300 ft
Few 12000 ft
Heat Index 81 °F
Dew Point 61 °F
Humidity 54%
Rainfall 0.00 in
Snow Depth Not available.
5:58 AM 9:19 PM
Waning Gibbous, 73% visible
METAR KD55 242115Z AUTO 29013G20KT 10SM FEW043 FEW120 25/17 A2993 RMK AO2

10-Day Weather Forecast

Almanac

Astronomy

Jul. 24, 2016 Rise Set
Actual Time
Civil Twilight
Nautical Twilight
Astronomical Twilight
Moon
Length of Visible Light
Length of Day
Tomorrow will be .
, % of the Moon is Illuminated

Today's Extremes

State Highs State Lows

Community

WunderPhotos

Upload Photos

1,927,191 photos uploaded!

WunderBlog® & News

Nearby

Air Quality

  Air Quality AQ Index Pollutant
Not available.

Snow Depth

Station Depth Elevation

Earthquake Activity

City Distance Mag. Time & Date
Minimum magnitude displayed is 2.5.

Coastal Water Temperatures

Place Temperature

Stations

Nearby Weather Stations

Station Location Temp. Windchill Dew Point Humidity Wind Precip. Elev Updated Type
                   

Watches & Warnings

There are currently no watches in effect.